TAF

Letisková predpoveď TAF

Informácie o správe TAF

24.06.2018 - 05:00 UTC

TAF LZSL 240500Z 2406/2415 05003KT CAVOK
    PROB40 TEMPO 2409/2412 34006KT 9999 -SHRA SCT040 BKN055=
TAF LZPP 240500Z 2406/2415 32008KT 9999 BKN040
    PROB40 TEMPO 2409/2415 01010KT -SHRA=
TAF LZZI 240500Z 2406/2415 30004KT 9999 BKN007
    BECMG 2406/2408 BKN033
    PROB40 TEMPO 2409/2415 27008KT -SHRA=

24.06.2018 - 05:00 UTC

TAF LZIB 240500Z 2406/2506 31006KT CAVOK
    TEMPO 2412/2506 32010KT 9999 SHRA FEW020TCU SCT034=
TAF LZKZ 240500Z 2406/2506 02005KT CAVOK
    PROB40 TEMPO 2410/2417 34010KT 9999 SHRA FEW033TCU SCT045=
TAF LZTT 240500Z 2406/2506 29006KT 9999 SCT042 BKN050
    TEMPO 2410/2418 30012KT SHRA SCT035TCU BKN040=

24.06.2018 - 02:00 UTC

TAF LZSL 240200Z 2403/2412 05003KT CAVOK
    PROB30 TEMPO 2403/2412 9999 -RA SCT040 BKN055=
TAF LZZI 240200Z 2403/2412 28004KT 9999 BKN020
    PROB40 TEMPO 2403/2412 -RA
    PROB30 2403/2405 0800 FG BKN003=

skok na menu ↑


skok na začiatok stránky ↑